sensor_id;sensor_type;location;lat;lon;timestamp;temperature;humidity
13115;DHT22;6623;52.120;8.660;2023-04-03T00:02:12;4.00;64.90
13115;DHT22;6623;52.120;8.660;2023-04-03T00:04:37;4.20;65.00
13115;DHT22;6623;52.120;8.660;2023-04-03T00:07:02;4.10;65.00
13115;DHT22;6623;52.120;8.660;2023-04-03T00:09:28;4.30;65.20
13115;DHT22;6623;52.120;8.660;2023-04-03T00:11:54;4.10;65.20
13115;DHT22;6623;52.120;8.660;2023-04-03T00:14:19;4.10;65.30
13115;DHT22;6623;52.120;8.660;2023-04-03T00:16:45;4.00;65.10
13115;DHT22;6623;52.120;8.660;2023-04-03T00:19:10;4.00;65.20
13115;DHT22;6623;52.120;8.660;2023-04-03T00:21:37;4.10;65.30
13115;DHT22;6623;52.120;8.660;2023-04-03T00:24:03;3.90;65.40
13115;DHT22;6623;52.120;8.660;2023-04-03T00:26:28;4.00;65.40
13115;DHT22;6623;52.120;8.660;2023-04-03T00:28:54;4.10;65.60
13115;DHT22;6623;52.120;8.660;2023-04-03T00:31:19;4.00;65.50
13115;DHT22;6623;52.120;8.660;2023-04-03T00:33:45;3.90;65.60
13115;DHT22;6623;52.120;8.660;2023-04-03T00:36:12;3.90;65.60
13115;DHT22;6623;52.120;8.660;2023-04-03T00:38:38;3.90;65.60
13115;DHT22;6623;52.120;8.660;2023-04-03T00:41:04;3.70;65.60
13115;DHT22;6623;52.120;8.660;2023-04-03T00:43:30;3.80;65.80
13115;DHT22;6623;52.120;8.660;2023-04-03T00:45:57;3.80;65.80
13115;DHT22;6623;52.120;8.660;2023-04-03T00:48:28;3.70;65.70
13115;DHT22;6623;52.120;8.660;2023-04-03T00:50:54;3.70;65.80
13115;DHT22;6623;52.120;8.660;2023-04-03T00:53:41;3.70;66.00
13115;DHT22;6623;52.120;8.660;2023-04-03T00:56:11;3.60;66.00
13115;DHT22;6623;52.120;8.660;2023-04-03T00:58:42;3.60;66.10
13115;DHT22;6623;52.120;8.660;2023-04-03T01:01:12;3.60;66.10
13115;DHT22;6623;52.120;8.660;2023-04-03T01:03:40;3.40;66.00
13115;DHT22;6623;52.120;8.660;2023-04-03T01:06:06;3.50;66.30
13115;DHT22;6623;52.120;8.660;2023-04-03T01:08:31;3.40;66.20
13115;DHT22;6623;52.120;8.660;2023-04-03T01:10:57;3.50;66.30
13115;DHT22;6623;52.120;8.660;2023-04-03T01:13:28;3.40;66.30
13115;DHT22;6623;52.120;8.660;2023-04-03T01:15:54;3.40;66.40
13115;DHT22;6623;52.120;8.660;2023-04-03T01:18:21;3.30;66.60
13115;DHT22;6623;52.120;8.660;2023-04-03T01:23:44;3.30;66.60
13115;DHT22;6623;52.120;8.660;2023-04-03T01:26:11;3.30;66.70
13115;DHT22;6623;52.120;8.660;2023-04-03T01:28:37;3.30;66.80
13115;DHT22;6623;52.120;8.660;2023-04-03T01:33:38;3.20;67.70
13115;DHT22;6623;52.120;8.660;2023-04-03T01:36:04;3.20;67.20
13115;DHT22;6623;52.120;8.660;2023-04-03T01:38:30;3.20;67.20
13115;DHT22;6623;52.120;8.660;2023-04-03T01:40:56;3.10;67.20
13115;DHT22;6623;52.120;8.660;2023-04-03T01:43:22;3.30;67.30
13115;DHT22;6623;52.120;8.660;2023-04-03T01:45:47;3.10;67.30
13115;DHT22;6623;52.120;8.660;2023-04-03T01:48:14;3.00;67.30
13115;DHT22;6623;52.120;8.660;2023-04-03T01:50:40;3.00;67.30
13115;DHT22;6623;52.120;8.660;2023-04-03T01:53:06;3.00;67.30
13115;DHT22;6623;52.120;8.660;2023-04-03T01:55:32;3.00;67.40
13115;DHT22;6623;52.120;8.660;2023-04-03T01:57:57;3.10;67.60
13115;DHT22;6623;52.120;8.660;2023-04-03T02:00:23;2.90;67.60
13115;DHT22;6623;52.120;8.660;2023-04-03T02:02:48;2.90;67.70
13115;DHT22;6623;52.120;8.660;2023-04-03T02:05:14;2.90;67.80
13115;DHT22;6623;52.120;8.660;2023-04-03T02:07:40;2.90;68.00
13115;DHT22;6623;52.120;8.660;2023-04-03T02:10:06;3.30;68.30
13115;DHT22;6623;52.120;8.660;2023-04-03T02:12:31;2.80;68.00
13115;DHT22;6623;52.120;8.660;2023-04-03T02:14:57;2.90;68.00
13115;DHT22;6623;52.120;8.660;2023-04-03T02:17:22;2.70;68.00
13115;DHT22;6623;52.120;8.660;2023-04-03T02:19:48;2.80;68.10
13115;DHT22;6623;52.120;8.660;2023-04-03T02:22:13;2.70;68.20
13115;DHT22;6623;52.120;8.660;2023-04-03T02:24:39;3.20;68.50
13115;DHT22;6623;52.120;8.660;2023-04-03T02:27:05;2.60;68.20
13115;DHT22;6623;52.120;8.660;2023-04-03T02:29:31;2.80;68.40
13115;DHT22;6623;52.120;8.660;2023-04-03T02:31:56;2.60;68.40
13115;DHT22;6623;52.120;8.660;2023-04-03T02:34:22;2.70;68.60
13115;DHT22;6623;52.120;8.660;2023-04-03T02:36:47;2.60;68.50
13115;DHT22;6623;52.120;8.660;2023-04-03T02:39:13;2.80;68.60
13115;DHT22;6623;52.120;8.660;2023-04-03T02:41:39;2.50;68.60
13115;DHT22;6623;52.120;8.660;2023-04-03T02:44:06;2.50;68.70
13115;DHT22;6623;52.120;8.660;2023-04-03T02:46:32;2.50;68.90
13115;DHT22;6623;52.120;8.660;2023-04-03T02:48:58;2.40;69.10
13115;DHT22;6623;52.120;8.660;2023-04-03T02:51:24;2.40;69.00
13115;DHT22;6623;52.120;8.660;2023-04-03T02:53:50;2.50;69.30
13115;DHT22;6623;52.120;8.660;2023-04-03T02:56:16;2.40;69.40
13115;DHT22;6623;52.120;8.660;2023-04-03T02:58:42;2.30;69.50
13115;DHT22;6623;52.120;8.660;2023-04-03T03:01:08;2.30;69.50
13115;DHT22;6623;52.120;8.660;2023-04-03T03:03:33;2.30;69.50
13115;DHT22;6623;52.120;8.660;2023-04-03T03:06:10;2.30;69.70
13115;DHT22;6623;52.120;8.660;2023-04-03T03:08:36;2.30;69.70
13115;DHT22;6623;52.120;8.660;2023-04-03T03:11:03;2.20;69.60
13115;DHT22;6623;52.120;8.660;2023-04-03T03:13:30;2.20;70.10
13115;DHT22;6623;52.120;8.660;2023-04-03T03:15:56;2.10;70.20
13115;DHT22;6623;52.120;8.660;2023-04-03T03:18:22;2.10;70.20
13115;DHT22;6623;52.120;8.660;2023-04-03T03:20:52;2.90;70.90
13115;DHT22;6623;52.120;8.660;2023-04-03T03:23:18;2.10;70.50
13115;DHT22;6623;52.120;8.660;2023-04-03T03:25:43;2.00;70.50
13115;DHT22;6623;52.120;8.660;2023-04-03T03:28:09;2.00;70.50
13115;DHT22;6623;52.120;8.660;2023-04-03T03:30:35;2.00;70.60
13115;DHT22;6623;52.120;8.660;2023-04-03T03:33:01;2.00;70.70
13115;DHT22;6623;52.120;8.660;2023-04-03T03:35:26;1.90;70.90
13115;DHT22;6623;52.120;8.660;2023-04-03T03:37:52;3.10;71.80
13115;DHT22;6623;52.120;8.660;2023-04-03T03:40:17;2.10;71.40
13115;DHT22;6623;52.120;8.660;2023-04-03T03:42:43;1.80;71.20
13115;DHT22;6623;52.120;8.660;2023-04-03T03:45:09;2.00;71.40
13115;DHT22;6623;52.120;8.660;2023-04-03T03:47:35;1.80;71.40
13115;DHT22;6623;52.120;8.660;2023-04-03T03:50:01;2.40;71.90
13115;DHT22;6623;52.120;8.660;2023-04-03T03:52:26;1.80;71.90
13115;DHT22;6623;52.120;8.660;2023-04-03T03:54:52;1.70;71.90
13115;DHT22;6623;52.120;8.660;2023-04-03T03:57:17;1.70;72.00
13115;DHT22;6623;52.120;8.660;2023-04-03T03:59:43;1.70;72.00
13115;DHT22;6623;52.120;8.660;2023-04-03T04:02:10;1.70;72.10
13115;DHT22;6623;52.120;8.660;2023-04-03T04:04:36;1.60;71.90
13115;DHT22;6623;52.120;8.660;2023-04-03T04:07:03;1.60;72.10
13115;DHT22;6623;52.120;8.660;2023-04-03T04:09:28;1.60;72.30
13115;DHT22;6623;52.120;8.660;2023-04-03T04:11:54;1.50;72.80
13115;DHT22;6623;52.120;8.660;2023-04-03T04:14:20;1.50;72.80
13115;DHT22;6623;52.120;8.660;2023-04-03T04:16:49;1.40;73.00
13115;DHT22;6623;52.120;8.660;2023-04-03T04:19:15;1.50;72.90
13115;DHT22;6623;52.120;8.660;2023-04-03T04:21:40;1.50;73.20
13115;DHT22;6623;52.120;8.660;2023-04-03T04:24:07;1.30;73.30
13115;DHT22;6623;52.120;8.660;2023-04-03T04:26:32;1.40;73.60
13115;DHT22;6623;52.120;8.660;2023-04-03T04:28:58;1.40;73.80
13115;DHT22;6623;52.120;8.660;2023-04-03T04:31:23;1.30;73.90
13115;DHT22;6623;52.120;8.660;2023-04-03T04:33:49;1.30;73.90
13115;DHT22;6623;52.120;8.660;2023-04-03T04:36:14;1.30;74.10
13115;DHT22;6623;52.120;8.660;2023-04-03T04:38:41;1.20;74.60
13115;DHT22;6623;52.120;8.660;2023-04-03T04:41:07;1.20;74.90
13115;DHT22;6623;52.120;8.660;2023-04-03T04:43:32;1.20;75.10
13115;DHT22;6623;52.120;8.660;2023-04-03T04:46:06;1.20;75.10
13115;DHT22;6623;52.120;8.660;2023-04-03T04:48:33;1.20;75.10
13115;DHT22;6623;52.120;8.660;2023-04-03T04:50:58;1.20;74.90
13115;DHT22;6623;52.120;8.660;2023-04-03T04:53:24;1.10;74.90
13115;DHT22;6623;52.120;8.660;2023-04-03T04:55:50;1.10;75.00
13115;DHT22;6623;52.120;8.660;2023-04-03T04:58:15;1.10;75.30
13115;DHT22;6623;52.120;8.660;2023-04-03T05:00:41;1.10;75.40
13115;DHT22;6623;52.120;8.660;2023-04-03T05:03:07;1.00;75.50
13115;DHT22;6623;52.120;8.660;2023-04-03T05:05:32;1.00;75.80
13115;DHT22;6623;52.120;8.660;2023-04-03T05:07:58;1.00;75.80
13115;DHT22;6623;52.120;8.660;2023-04-03T05:10:23;1.00;75.80
13115;DHT22;6623;52.120;8.660;2023-04-03T05:12:49;1.00;75.70
13115;DHT22;6623;52.120;8.660;2023-04-03T05:15:14;1.10;76.40
13115;DHT22;6623;52.120;8.660;2023-04-03T05:17:40;1.00;75.80
13115;DHT22;6623;52.120;8.660;2023-04-03T05:20:06;1.00;75.90
13115;DHT22;6623;52.120;8.660;2023-04-03T05:22:32;1.00;76.10
13115;DHT22;6623;52.120;8.660;2023-04-03T05:24:57;1.00;76.20
13115;DHT22;6623;52.120;8.660;2023-04-03T05:27:23;0.90;76.40
13115;DHT22;6623;52.120;8.660;2023-04-03T05:29:52;1.00;76.40
13115;DHT22;6623;52.120;8.660;2023-04-03T05:32:17;1.00;76.40
13115;DHT22;6623;52.120;8.660;2023-04-03T05:34:43;1.00;76.30
13115;DHT22;6623;52.120;8.660;2023-04-03T05:37:08;1.10;76.40
13115;DHT22;6623;52.120;8.660;2023-04-03T05:39:34;1.00;76.60
13115;DHT22;6623;52.120;8.660;2023-04-03T05:42:00;1.00;76.60
13115;DHT22;6623;52.120;8.660;2023-04-03T05:44:25;1.00;76.70
13115;DHT22;6623;52.120;8.660;2023-04-03T05:46:51;1.20;76.80
13115;DHT22;6623;52.120;8.660;2023-04-03T05:49:16;1.00;76.70
13115;DHT22;6623;52.120;8.660;2023-04-03T05:51:42;1.20;76.90
13115;DHT22;6623;52.120;8.660;2023-04-03T05:54:13;1.30;77.20
13115;DHT22;6623;52.120;8.660;2023-04-03T05:56:41;1.10;77.20
13115;DHT22;6623;52.120;8.660;2023-04-03T05:59:06;1.20;77.50
13115;DHT22;6623;52.120;8.660;2023-04-03T06:01:32;1.30;78.00
13115;DHT22;6623;52.120;8.660;2023-04-03T06:03:59;1.40;78.50
13115;DHT22;6623;52.120;8.660;2023-04-03T06:06:25;1.40;78.70
13115;DHT22;6623;52.120;8.660;2023-04-03T06:08:50;1.70;78.90
13115;DHT22;6623;52.120;8.660;2023-04-03T06:11:16;1.70;78.60
13115;DHT22;6623;52.120;8.660;2023-04-03T06:13:42;1.80;78.80
13115;DHT22;6623;52.120;8.660;2023-04-03T06:16:12;1.90;79.00
13115;DHT22;6623;52.120;8.660;2023-04-03T06:18:39;2.00;78.60
13115;DHT22;6623;52.120;8.660;2023-04-03T06:21:06;2.00;78.10
13115;DHT22;6623;52.120;8.660;2023-04-03T06:23:33;2.10;78.20
13115;DHT22;6623;52.120;8.660;2023-04-03T06:25:58;2.10;78.10
13115;DHT22;6623;52.120;8.660;2023-04-03T06:28:25;2.50;78.10
13115;DHT22;6623;52.120;8.660;2023-04-03T06:30:50;2.20;78.00
13115;DHT22;6623;52.120;8.660;2023-04-03T06:33:16;2.30;78.00
13115;DHT22;6623;52.120;8.660;2023-04-03T06:35:41;2.30;77.80
13115;DHT22;6623;52.120;8.660;2023-04-03T06:38:07;2.30;77.80
13115;DHT22;6623;52.120;8.660;2023-04-03T06:40:35;2.30;77.80
13115;DHT22;6623;52.120;8.660;2023-04-03T06:43:01;2.30;77.80
13115;DHT22;6623;52.120;8.660;2023-04-03T06:45:26;2.40;77.80
13115;DHT22;6623;52.120;8.660;2023-04-03T06:47:53;2.40;77.60
13115;DHT22;6623;52.120;8.660;2023-04-03T06:50:19;2.30;77.30
13115;DHT22;6623;52.120;8.660;2023-04-03T06:52:45;2.40;77.30
13115;DHT22;6623;52.120;8.660;2023-04-03T06:55:10;2.30;76.90
13115;DHT22;6623;52.120;8.660;2023-04-03T06:57:36;2.30;76.60
13115;DHT22;6623;52.120;8.660;2023-04-03T07:00:04;2.40;76.40
13115;DHT22;6623;52.120;8.660;2023-04-03T07:02:30;2.50;76.00
13115;DHT22;6623;52.120;8.660;2023-04-03T07:04:56;2.50;75.60
13115;DHT22;6623;52.120;8.660;2023-04-03T07:07:22;2.50;75.20
13115;DHT22;6623;52.120;8.660;2023-04-03T07:09:47;2.50;75.00
13115;DHT22;6623;52.120;8.660;2023-04-03T07:12:13;2.50;74.60
13115;DHT22;6623;52.120;8.660;2023-04-03T07:14:39;2.50;74.10
13115;DHT22;6623;52.120;8.660;2023-04-03T07:17:04;2.50;74.10
13115;DHT22;6623;52.120;8.660;2023-04-03T07:19:30;2.40;74.10
13115;DHT22;6623;52.120;8.660;2023-04-03T07:21:56;2.60;73.60
13115;DHT22;6623;52.120;8.660;2023-04-03T07:24:22;2.50;73.30
13115;DHT22;6623;52.120;8.660;2023-04-03T07:26:52;2.50;73.00
13115;DHT22;6623;52.120;8.660;2023-04-03T07:29:18;3.00;72.90
13115;DHT22;6623;52.120;8.660;2023-04-03T07:31:44;2.70;72.90
13115;DHT22;6623;52.120;8.660;2023-04-03T07:34:10;2.60;72.50
13115;DHT22;6623;52.120;8.660;2023-04-03T07:36:36;2.80;72.00
13115;DHT22;6623;52.120;8.660;2023-04-03T07:39:02;2.80;71.90
13115;DHT22;6623;52.120;8.660;2023-04-03T07:41:28;2.80;71.60
13115;DHT22;6623;52.120;8.660;2023-04-03T07:43:54;2.80;71.60
13115;DHT22;6623;52.120;8.660;2023-04-03T07:46:21;2.30;71.20
13115;DHT22;6623;52.120;8.660;2023-04-03T07:48:47;2.80;71.30
13115;DHT22;6623;52.120;8.660;2023-04-03T07:51:13;2.80;71.40
13115;DHT22;6623;52.120;8.660;2023-04-03T07:53:38;2.90;71.30
13115;DHT22;6623;52.120;8.660;2023-04-03T07:56:04;3.00;71.20
13115;DHT22;6623;52.120;8.660;2023-04-03T07:58:30;3.00;71.30
13115;DHT22;6623;52.120;8.660;2023-04-03T08:00:56;3.10;70.60
13115;DHT22;6623;52.120;8.660;2023-04-03T08:03:22;3.00;69.90
13115;DHT22;6623;52.120;8.660;2023-04-03T08:05:49;3.00;70.30
13115;DHT22;6623;52.120;8.660;2023-04-03T08:08:17;3.20;70.40
13115;DHT22;6623;52.120;8.660;2023-04-03T08:10:43;3.30;70.30
13115;DHT22;6623;52.120;8.660;2023-04-03T08:13:12;3.10;70.00
13115;DHT22;6623;52.120;8.660;2023-04-03T08:15:38;3.30;69.70
13115;DHT22;6623;52.120;8.660;2023-04-03T08:18:04;3.30;69.40
13115;DHT22;6623;52.120;8.660;2023-04-03T08:20:29;3.30;69.60
13115;DHT22;6623;52.120;8.660;2023-04-03T08:22:55;3.40;69.30
13115;DHT22;6623;52.120;8.660;2023-04-03T08:25:21;3.40;69.50
13115;DHT22;6623;52.120;8.660;2023-04-03T08:27:47;3.40;69.60
13115;DHT22;6623;52.120;8.660;2023-04-03T08:30:13;3.50;69.30
13115;DHT22;6623;52.120;8.660;2023-04-03T08:32:38;3.50;69.20
13115;DHT22;6623;52.120;8.660;2023-04-03T08:35:07;3.50;69.20
13115;DHT22;6623;52.120;8.660;2023-04-03T08:37:35;3.60;68.70
13115;DHT22;6623;52.120;8.660;2023-04-03T08:40:02;3.50;67.70
13115;DHT22;6623;52.120;8.660;2023-04-03T08:45:25;3.60;67.00
13115;DHT22;6623;52.120;8.660;2023-04-03T08:48:04;3.90;66.90
13115;DHT22;6623;52.120;8.660;2023-04-03T08:50:43;3.60;66.10
13115;DHT22;6623;52.120;8.660;2023-04-03T08:53:16;3.70;66.70
13115;DHT22;6623;52.120;8.660;2023-04-03T08:55:45;3.70;66.90
13115;DHT22;6623;52.120;8.660;2023-04-03T08:58:42;3.80;67.10
13115;DHT22;6623;52.120;8.660;2023-04-03T09:01:21;3.80;66.40
13115;DHT22;6623;52.120;8.660;2023-04-03T09:03:48;3.90;66.00
13115;DHT22;6623;52.120;8.660;2023-04-03T09:06:20;4.00;66.00
13115;DHT22;6623;52.120;8.660;2023-04-03T09:09:00;4.00;66.30
13115;DHT22;6623;52.120;8.660;2023-04-03T09:14:38;4.00;66.30
13115;DHT22;6623;52.120;8.660;2023-04-03T09:17:06;4.10;65.30
13115;DHT22;6623;52.120;8.660;2023-04-03T09:19:41;4.10;65.00
13115;DHT22;6623;52.120;8.660;2023-04-03T09:22:25;4.10;65.10
13115;DHT22;6623;52.120;8.660;2023-04-03T09:25:13;4.20;65.00
13115;DHT22;6623;52.120;8.660;2023-04-03T09:27:41;4.20;64.90
13115;DHT22;6623;52.120;8.660;2023-04-03T09:30:13;4.20;64.80
13115;DHT22;6623;52.120;8.660;2023-04-03T09:32:39;4.10;64.60
13115;DHT22;6623;52.120;8.660;2023-04-03T09:37:46;5.40;65.60
13115;DHT22;6623;52.120;8.660;2023-04-03T09:40:32;4.10;64.70
13115;DHT22;6623;52.120;8.660;2023-04-03T09:43:21;4.40;64.40
13115;DHT22;6623;52.120;8.660;2023-04-03T09:45:48;4.40;64.40
13115;DHT22;6623;52.120;8.660;2023-04-03T09:56:20;4.50;62.50
13115;DHT22;6623;52.120;8.660;2023-04-03T09:58:49;4.50;61.40
13115;DHT22;6623;52.120;8.660;2023-04-03T10:01:26;4.40;62.20
13115;DHT22;6623;52.120;8.660;2023-04-03T10:04:22;4.20;60.80
13115;DHT22;6623;52.120;8.660;2023-04-03T10:06:52;4.50;61.60
13115;DHT22;6623;52.120;8.660;2023-04-03T10:09:29;4.50;61.70
13115;DHT22;6623;52.120;8.660;2023-04-03T10:12:10;4.70;61.90
13115;DHT22;6623;52.120;8.660;2023-04-03T10:15:00;4.80;62.10
13115;DHT22;6623;52.120;8.660;2023-04-03T10:22:40;5.20;61.40
13115;DHT22;6623;52.120;8.660;2023-04-03T10:25:43;5.30;61.30
13115;DHT22;6623;52.120;8.660;2023-04-03T10:28:24;5.30;60.70
13115;DHT22;6623;52.120;8.660;2023-04-03T10:33:52;5.20;60.60
13115;DHT22;6623;52.120;8.660;2023-04-03T10:36:36;5.30;61.10
13115;DHT22;6623;52.120;8.660;2023-04-03T10:42:00;5.30;60.60
13115;DHT22;6623;52.120;8.660;2023-04-03T10:49:55;5.60;60.60
13115;DHT22;6623;52.120;8.660;2023-04-03T10:52:42;5.80;59.80
13115;DHT22;6623;52.120;8.660;2023-04-03T10:55:28;6.00;59.90
13115;DHT22;6623;52.120;8.660;2023-04-03T10:57:56;6.20;60.10
13115;DHT22;6623;52.120;8.660;2023-04-03T11:00:42;6.30;59.70
13115;DHT22;6623;52.120;8.660;2023-04-03T11:03:29;6.30;59.50
13115;DHT22;6623;52.120;8.660;2023-04-03T11:05:57;6.50;59.30
13115;DHT22;6623;52.120;8.660;2023-04-03T11:11:19;6.70;58.10
13115;DHT22;6623;52.120;8.660;2023-04-03T11:16:33;6.70;57.80
13115;DHT22;6623;52.120;8.660;2023-04-03T11:19:03;6.70;57.70
13115;DHT22;6623;52.120;8.660;2023-04-03T11:21:39;6.80;57.80
13115;DHT22;6623;52.120;8.660;2023-04-03T11:24:06;6.80;57.50
13115;DHT22;6623;52.120;8.660;2023-04-03T11:26:40;8.20;57.10
13115;DHT22;6623;52.120;8.660;2023-04-03T11:29:14;6.90;56.10
13115;DHT22;6623;52.120;8.660;2023-04-03T11:34:49;6.90;56.60
13115;DHT22;6623;52.120;8.660;2023-04-03T11:37:33;7.00;56.70
13115;DHT22;6623;52.120;8.660;2023-04-03T11:42:46;7.00;56.00
13115;DHT22;6623;52.120;8.660;2023-04-03T11:45:29;6.90;54.90
13115;DHT22;6623;52.120;8.660;2023-04-03T11:50:43;7.00;55.80
13115;DHT22;6623;52.120;8.660;2023-04-03T11:58:22;7.10;55.80
13115;DHT22;6623;52.120;8.660;2023-04-03T12:00:51;7.20;55.30
13115;DHT22;6623;52.120;8.660;2023-04-03T12:05:48;7.50;54.50
13115;DHT22;6623;52.120;8.660;2023-04-03T12:14:04;7.30;53.50
13115;DHT22;6623;52.120;8.660;2023-04-03T12:48:38;8.00;52.20
13115;DHT22;6623;52.120;8.660;2023-04-03T12:51:05;8.10;51.20
13115;DHT22;6623;52.120;8.660;2023-04-03T12:53:35;8.10;51.00
13115;DHT22;6623;52.120;8.660;2023-04-03T12:58:53;8.30;50.70
13115;DHT22;6623;52.120;8.660;2023-04-03T13:01:21;8.20;49.50
13115;DHT22;6623;52.120;8.660;2023-04-03T13:03:52;8.20;49.70
13115;DHT22;6623;52.120;8.660;2023-04-03T13:06:23;8.30;50.20
13115;DHT22;6623;52.120;8.660;2023-04-03T13:08:55;8.30;50.30
13115;DHT22;6623;52.120;8.660;2023-04-03T13:11:24;8.40;50.40
13115;DHT22;6623;52.120;8.660;2023-04-03T13:13:59;8.40;50.30
13115;DHT22;6623;52.120;8.660;2023-04-03T13:16:26;8.40;50.30
13115;DHT22;6623;52.120;8.660;2023-04-03T13:18:53;8.40;49.80
13115;DHT22;6623;52.120;8.660;2023-04-03T13:21:22;8.40;50.10
13115;DHT22;6623;52.120;8.660;2023-04-03T13:23:51;8.30;50.00
13115;DHT22;6623;52.120;8.660;2023-04-03T13:26:20;8.40;50.20
13115;DHT22;6623;52.120;8.660;2023-04-03T13:28:46;8.40;49.90
13115;DHT22;6623;52.120;8.660;2023-04-03T13:33:43;8.30;49.60
13115;DHT22;6623;52.120;8.660;2023-04-03T13:36:20;8.30;48.90
13115;DHT22;6623;52.120;8.660;2023-04-03T13:38:58;8.20;47.60
13115;DHT22;6623;52.120;8.660;2023-04-03T13:41:30;8.20;47.30
13115;DHT22;6623;52.120;8.660;2023-04-03T13:43:56;8.10;47.40
13115;DHT22;6623;52.120;8.660;2023-04-03T13:46:25;8.00;47.90
13115;DHT22;6623;52.120;8.660;2023-04-03T13:48:54;8.00;47.40
13115;DHT22;6623;52.120;8.660;2023-04-03T13:53:57;8.00;48.50
13115;DHT22;6623;52.120;8.660;2023-04-03T13:56:29;8.00;48.50
13115;DHT22;6623;52.120;8.660;2023-04-03T13:59:00;7.90;48.10
13115;DHT22;6623;52.120;8.660;2023-04-03T14:01:43;7.80;48.00
13115;DHT22;6623;52.120;8.660;2023-04-03T14:04:14;7.70;48.00
13115;DHT22;6623;52.120;8.660;2023-04-03T14:06:40;7.50;48.70
13115;DHT22;6623;52.120;8.660;2023-04-03T14:09:05;7.60;48.80
13115;DHT22;6623;52.120;8.660;2023-04-03T14:11:31;7.60;47.50
13115;DHT22;6623;52.120;8.660;2023-04-03T14:14:01;7.60;48.00
13115;DHT22;6623;52.120;8.660;2023-04-03T14:16:31;7.60;48.00
13115;DHT22;6623;52.120;8.660;2023-04-03T14:18:57;7.70;48.20
13115;DHT22;6623;52.120;8.660;2023-04-03T14:21:23;7.70;48.50
13115;DHT22;6623;52.120;8.660;2023-04-03T14:23:49;7.80;48.90
13115;DHT22;6623;52.120;8.660;2023-04-03T14:26:24;7.80;47.90
13115;DHT22;6623;52.120;8.660;2023-04-03T14:28:54;7.80;47.50
13115;DHT22;6623;52.120;8.660;2023-04-03T14:31:24;7.80;47.70
13115;DHT22;6623;52.120;8.660;2023-04-03T14:33:50;7.60;47.30
13115;DHT22;6623;52.120;8.660;2023-04-03T14:36:28;7.70;47.50
13115;DHT22;6623;52.120;8.660;2023-04-03T14:38:54;7.40;47.80
13115;DHT22;6623;52.120;8.660;2023-04-03T14:41:22;7.70;48.60
13115;DHT22;6623;52.120;8.660;2023-04-03T14:43:49;7.70;48.70
13115;DHT22;6623;52.120;8.660;2023-04-03T14:46:20;7.80;48.80
13115;DHT22;6623;52.120;8.660;2023-04-03T14:48:47;8.00;49.00
13115;DHT22;6623;52.120;8.660;2023-04-03T14:51:13;8.00;48.90
13115;DHT22;6623;52.120;8.660;2023-04-03T14:53:41;7.90;48.10
13115;DHT22;6623;52.120;8.660;2023-04-03T14:56:33;7.80;47.60
13115;DHT22;6623;52.120;8.660;2023-04-03T14:59:00;7.90;47.50
13115;DHT22;6623;52.120;8.660;2023-04-03T15:01:27;7.80;47.60
13115;DHT22;6623;52.120;8.660;2023-04-03T15:03:54;7.80;47.20
13115;DHT22;6623;52.120;8.660;2023-04-03T15:06:20;7.70;48.10
13115;DHT22;6623;52.120;8.660;2023-04-03T15:08:47;7.70;47.70
13115;DHT22;6623;52.120;8.660;2023-04-03T15:11:13;7.60;48.00
13115;DHT22;6623;52.120;8.660;2023-04-03T15:13:39;7.70;48.40
13115;DHT22;6623;52.120;8.660;2023-04-03T15:16:18;7.70;48.80
13115;DHT22;6623;52.120;8.660;2023-04-03T15:18:45;7.80;48.90
13115;DHT22;6623;52.120;8.660;2023-04-03T15:21:12;7.80;48.80
13115;DHT22;6623;52.120;8.660;2023-04-03T15:23:37;7.80;48.80
13115;DHT22;6623;52.120;8.660;2023-04-03T15:26:03;7.80;48.00
13115;DHT22;6623;52.120;8.660;2023-04-03T15:28:35;10.40;49.40
13115;DHT22;6623;52.120;8.660;2023-04-03T15:31:01;7.60;48.20
13115;DHT22;6623;52.120;8.660;2023-04-03T15:33:27;7.70;48.70
13115;DHT22;6623;52.120;8.660;2023-04-03T15:35:53;7.70;48.90
13115;DHT22;6623;52.120;8.660;2023-04-03T15:38:19;7.80;48.50
13115;DHT22;6623;52.120;8.660;2023-04-03T15:40:44;7.90;48.30
13115;DHT22;6623;52.120;8.660;2023-04-03T15:43:12;8.10;48.40
13115;DHT22;6623;52.120;8.660;2023-04-03T15:45:38;8.10;48.20
13115;DHT22;6623;52.120;8.660;2023-04-03T15:48:04;8.10;48.30
13115;DHT22;6623;52.120;8.660;2023-04-03T15:50:31;8.10;48.30
13115;DHT22;6623;52.120;8.660;2023-04-03T15:52:57;7.80;47.90
13115;DHT22;6623;52.120;8.660;2023-04-03T15:55:28;7.90;47.80
13115;DHT22;6623;52.120;8.660;2023-04-03T15:57:53;7.80;47.90
13115;DHT22;6623;52.120;8.660;2023-04-03T16:00:20;7.70;47.90
13115;DHT22;6623;52.120;8.660;2023-04-03T16:02:47;7.70;47.70
13115;DHT22;6623;52.120;8.660;2023-04-03T16:05:15;7.60;47.90
13115;DHT22;6623;52.120;8.660;2023-04-03T16:07:43;7.40;48.10
13115;DHT22;6623;52.120;8.660;2023-04-03T16:10:11;7.60;47.90
13115;DHT22;6623;52.120;8.660;2023-04-03T16:12:39;7.60;47.50
13115;DHT22;6623;52.120;8.660;2023-04-03T16:15:05;7.70;48.00
13115;DHT22;6623;52.120;8.660;2023-04-03T16:17:32;7.70;48.00
13115;DHT22;6623;52.120;8.660;2023-04-03T16:19:58;7.70;47.60
13115;DHT22;6623;52.120;8.660;2023-04-03T16:22:25;7.70;47.90
13115;DHT22;6623;52.120;8.660;2023-04-03T16:24:51;7.60;47.60
13115;DHT22;6623;52.120;8.660;2023-04-03T16:27:17;7.50;47.70
13115;DHT22;6623;52.120;8.660;2023-04-03T16:29:43;7.50;47.80
13115;DHT22;6623;52.120;8.660;2023-04-03T16:32:08;7.40;47.80
13115;DHT22;6623;52.120;8.660;2023-04-03T16:34:34;7.30;47.80
13115;DHT22;6623;52.120;8.660;2023-04-03T16:37:00;7.30;47.90
13115;DHT22;6623;52.120;8.660;2023-04-03T16:39:26;7.30;47.90
13115;DHT22;6623;52.120;8.660;2023-04-03T16:41:51;7.30;48.10
13115;DHT22;6623;52.120;8.660;2023-04-03T16:44:17;7.30;48.60
13115;DHT22;6623;52.120;8.660;2023-04-03T16:46:43;7.30;48.80
13115;DHT22;6623;52.120;8.660;2023-04-03T16:49:08;7.40;49.00
13115;DHT22;6623;52.120;8.660;2023-04-03T16:51:34;7.50;49.10
13115;DHT22;6623;52.120;8.660;2023-04-03T16:54:00;7.50;48.90
13115;DHT22;6623;52.120;8.660;2023-04-03T16:56:25;7.60;48.80
13115;DHT22;6623;52.120;8.660;2023-04-03T16:58:54;7.50;48.70
13115;DHT22;6623;52.120;8.660;2023-04-03T17:01:21;7.50;48.20
13115;DHT22;6623;52.120;8.660;2023-04-03T17:03:47;7.40;48.00
13115;DHT22;6623;52.120;8.660;2023-04-03T17:06:17;7.30;47.90
13115;DHT22;6623;52.120;8.660;2023-04-03T17:08:47;7.30;47.90
13115;DHT22;6623;52.120;8.660;2023-04-03T17:11:14;7.10;47.90
13115;DHT22;6623;52.120;8.660;2023-04-03T17:13:39;7.20;48.10
13115;DHT22;6623;52.120;8.660;2023-04-03T17:16:08;7.10;48.40
13115;DHT22;6623;52.120;8.660;2023-04-03T17:18:34;7.00;48.50
13115;DHT22;6623;52.120;8.660;2023-04-03T17:21:01;6.90;48.50
13115;DHT22;6623;52.120;8.660;2023-04-03T17:23:27;6.90;48.70
13115;DHT22;6623;52.120;8.660;2023-04-03T17:25:54;6.80;48.80
13115;DHT22;6623;52.120;8.660;2023-04-03T17:28:23;7.00;49.00
13115;DHT22;6623;52.120;8.660;2023-04-03T17:31:00;7.00;49.10
13115;DHT22;6623;52.120;8.660;2023-04-03T17:33:26;6.90;49.20
13115;DHT22;6623;52.120;8.660;2023-04-03T17:35:59;6.80;49.30
13115;DHT22;6623;52.120;8.660;2023-04-03T17:38:32;6.80;49.40
13115;DHT22;6623;52.120;8.660;2023-04-03T17:41:00;6.80;49.50
13115;DHT22;6623;52.120;8.660;2023-04-03T17:43:26;6.70;49.60
13115;DHT22;6623;52.120;8.660;2023-04-03T17:45:52;6.70;49.70
13115;DHT22;6623;52.120;8.660;2023-04-03T17:48:18;6.60;49.80
13115;DHT22;6623;52.120;8.660;2023-04-03T17:50:43;6.70;49.70
13115;DHT22;6623;52.120;8.660;2023-04-03T17:53:09;6.60;49.30
13115;DHT22;6623;52.120;8.660;2023-04-03T17:55:37;6.60;49.50